createdAt,value
2019-05-21T00:06:56.437Z,21.8
2019-05-21T00:37:01.237Z,18.7
2019-05-21T01:07:00.795Z,15.9
2019-05-21T01:37:01.150Z,13.9
2019-05-21T02:07:03.423Z,12.3
2019-05-21T02:37:09.109Z,11.1
2019-05-21T03:07:04.312Z,10.2
2019-05-21T03:37:04.849Z,9.6
2019-05-21T04:07:07.193Z,9.2
2019-05-21T04:37:18.588Z,8.9
2019-05-21T05:07:08.462Z,8.7
2019-05-21T05:37:09.682Z,8.6
2019-05-21T06:07:29.471Z,8.5
2019-05-21T06:38:18.934Z,8.5
2019-05-21T07:08:04.412Z,8.5
2019-05-21T07:38:04.623Z,8.5
2019-05-21T08:08:34.819Z,8.6
2019-05-21T08:38:36.533Z,8.6
2019-05-21T09:08:36.959Z,8.6
2019-05-21T09:38:41.809Z,8.6
2019-05-21T10:08:43.351Z,8.5
2019-05-21T10:38:43.885Z,8.5
2019-05-21T11:08:46.151Z,8.4
2019-05-21T11:38:45.328Z,8.4
2019-05-21T12:08:58.260Z,8.3
2019-05-21T12:38:48.576Z,8.2
2019-05-21T13:08:48.571Z,8.2
2019-05-21T13:38:55.709Z,8.2
2019-05-21T14:08:52.996Z,8.2
2019-05-21T14:39:08.245Z,8.3
2019-05-21T15:08:54.475Z,8.3
2019-05-21T15:38:55.977Z,8.3
2019-05-21T16:08:57.102Z,8.4
2019-05-21T16:38:58.224Z,8.3
2019-05-21T17:08:58.044Z,8.3
2019-05-21T17:39:14.309Z,8.2
2019-05-21T18:09:22.796Z,8.1
2019-05-21T18:39:27.289Z,8
2019-05-21T19:09:28.922Z,7.9
2019-05-21T19:39:30.305Z,7.9
2019-05-21T20:09:30.829Z,7.8
2019-05-21T20:39:32.438Z,7.8
2019-05-21T21:06:37.080Z,79.8
2019-05-21T21:36:40.472Z,62.2
2019-05-21T22:06:25.645Z,48.2
2019-05-21T22:36:26.705Z,38.1
2019-05-21T23:06:27.495Z,30.3
2019-05-21T23:36:28.265Z,24.7
